createdAt,value
2022-09-20T00:02:10.008Z,17.47
2022-09-20T00:04:40.111Z,17.54
2022-09-20T00:07:10.064Z,17.62
2022-09-20T00:09:42.082Z,17.72
2022-09-20T00:12:12.062Z,17.81
2022-09-20T00:14:42.153Z,17.90
2022-09-20T00:17:13.916Z,17.97
2022-09-20T00:19:44.045Z,18.06
2022-09-20T00:22:14.331Z,18.13
2022-09-20T00:24:48.774Z,18.23
2022-09-20T00:27:19.053Z,18.29
2022-09-20T00:29:49.333Z,18.37
2022-09-20T00:32:19.688Z,18.44
2022-09-20T00:35:07.620Z,18.51
2022-09-20T00:37:40.460Z,18.61
2022-09-20T00:40:16.231Z,18.69
2022-09-20T00:42:46.389Z,18.74
2022-09-20T00:45:28.750Z,18.85
2022-09-20T00:48:08.253Z,18.95
2022-09-20T00:51:19.522Z,19.05
2022-09-20T00:53:50.925Z,19.15
2022-09-20T00:56:32.711Z,19.23
2022-09-20T00:59:03.049Z,19.31
2022-09-20T01:01:33.274Z,19.39
2022-09-20T01:04:04.698Z,19.47
2022-09-20T01:06:36.265Z,19.56
2022-09-20T01:09:09.020Z,19.64
2022-09-20T01:11:41.192Z,19.72
2022-09-20T01:14:11.918Z,19.81
2022-09-20T01:16:42.362Z,19.86
2022-09-20T01:19:36.950Z,19.96
2022-09-20T01:22:16.705Z,20.04
2022-09-20T01:24:57.076Z,20.14
2022-09-20T01:27:48.866Z,20.21
2022-09-20T01:30:45.720Z,20.26
2022-09-20T01:33:40.106Z,20.36
2022-09-20T01:36:20.425Z,20.39
2022-09-20T01:39:20.992Z,20.51
2022-09-20T01:42:03.856Z,20.60
2022-09-20T01:45:04.290Z,20.69
2022-09-20T01:47:40.440Z,20.77
2022-09-20T01:50:31.864Z,20.85
2022-09-20T01:53:25.963Z,20.89
2022-09-20T01:56:28.451Z,21.00
2022-09-20T01:59:19.715Z,21.07
2022-09-20T02:02:08.101Z,21.14
2022-09-20T02:05:11.339Z,21.19
2022-09-20T02:07:58.837Z,21.29
2022-09-20T02:10:44.801Z,21.37
2022-09-20T02:13:14.114Z,21.46
2022-09-20T02:16:25.199Z,21.52
2022-09-20T02:19:33.006Z,21.58
2022-09-20T02:22:27.699Z,21.61
2022-09-20T02:25:14.714Z,21.65
2022-09-20T02:28:29.649Z,21.68
2022-09-20T02:31:28.186Z,21.74
2022-09-20T02:34:39.115Z,21.85
2022-09-20T02:37:41.916Z,21.94
2022-09-20T02:40:21.354Z,22.01
2022-09-20T02:43:04.559Z,22.05
2022-09-20T02:45:46.498Z,22.13
2022-09-20T02:48:22.754Z,22.18
2022-09-20T02:51:05.853Z,22.25
2022-09-20T02:53:42.017Z,22.28
2022-09-20T02:56:21.439Z,22.32
2022-09-20T02:59:06.384Z,22.34
2022-09-20T03:01:45.416Z,22.39
2022-09-20T03:04:34.078Z,22.45
2022-09-20T03:07:20.900Z,22.49
2022-09-20T03:10:12.853Z,22.54
2022-09-20T03:13:40.711Z,22.58
2022-09-20T03:16:51.399Z,22.62
2022-09-20T03:19:22.832Z,22.64
2022-09-20T03:22:19.547Z,22.69
2022-09-20T03:25:11.177Z,22.74
2022-09-20T03:28:10.575Z,22.71
2022-09-20T03:31:01.764Z,22.70
2022-09-20T03:34:08.741Z,22.68
2022-09-20T03:37:07.090Z,22.69
2022-09-20T03:40:13.575Z,22.70
2022-09-20T03:42:53.587Z,22.71
2022-09-20T03:45:33.839Z,22.74
2022-09-20T03:48:38.874Z,22.78
2022-09-20T03:51:24.977Z,22.78
2022-09-20T03:54:36.115Z,22.76
2022-09-20T03:57:41.045Z,22.76
2022-09-20T04:00:28.871Z,22.77
2022-09-20T04:03:43.122Z,22.79
2022-09-20T04:06:26.138Z,22.80
2022-09-20T04:09:32.632Z,22.85
2022-09-20T04:12:05.855Z,22.87
2022-09-20T04:15:05.718Z,22.88
2022-09-20T04:18:05.654Z,22.92
2022-09-20T04:20:49.625Z,22.92
2022-09-20T04:23:54.275Z,22.95
2022-09-20T04:26:34.093Z,22.97
2022-09-20T04:29:36.410Z,22.99
2022-09-20T04:32:21.434Z,23.02
2022-09-20T04:35:34.540Z,23.04
2022-09-20T04:38:08.556Z,23.00
2022-09-20T04:41:00.880Z,23.01
2022-09-20T04:43:36.669Z,23.08
2022-09-20T04:46:34.529Z,23.11
2022-09-20T04:49:42.299Z,23.13
2022-09-20T04:52:39.418Z,23.17
2022-09-20T04:55:38.154Z,23.20
2022-09-20T04:58:29.512Z,23.21
2022-09-20T05:01:18.236Z,23.22
2022-09-20T05:03:54.903Z,23.26
2022-09-20T05:06:48.389Z,23.28
2022-09-20T05:09:52.316Z,23.32
2022-09-20T05:13:07.188Z,23.35
2022-09-20T05:15:40.531Z,23.39
2022-09-20T05:18:20.872Z,23.40
2022-09-20T05:20:58.053Z,23.44
2022-09-20T05:23:52.339Z,23.49
2022-09-20T05:27:00.090Z,23.52
2022-09-20T05:29:47.922Z,23.55
2022-09-20T05:32:49.896Z,23.57
2022-09-20T05:35:50.919Z,23.57
2022-09-20T05:39:14.400Z,23.58
2022-09-20T05:42:03.496Z,23.59
2022-09-20T05:44:51.842Z,23.64
2022-09-20T05:47:33.871Z,23.66
2022-09-20T05:50:30.938Z,23.69
2022-09-20T05:53:41.616Z,23.72
2022-09-20T05:56:55.972Z,23.75
2022-09-20T05:59:39.806Z,23.75
2022-09-20T06:02:34.580Z,23.81
2022-09-20T06:05:19.876Z,23.83
2022-09-20T06:08:15.626Z,23.87
2022-09-20T06:11:12.554Z,23.89
2022-09-20T06:14:05.312Z,23.90
2022-09-20T06:16:49.288Z,23.91
2022-09-20T06:19:52.341Z,23.93
2022-09-20T06:22:31.583Z,23.96
2022-09-20T06:25:24.480Z,24.00
2022-09-20T06:28:01.074Z,24.02
2022-09-20T06:30:39.628Z,24.04
2022-09-20T06:33:12.571Z,24.06
2022-09-20T06:36:22.673Z,24.10
2022-09-20T06:39:16.678Z,24.13
2022-09-20T06:41:47.551Z,24.14
2022-09-20T06:44:17.833Z,24.19
2022-09-20T06:47:01.927Z,24.23
2022-09-20T06:49:51.409Z,24.22
2022-09-20T06:53:01.980Z,24.27
2022-09-20T06:55:42.134Z,24.32
2022-09-20T06:58:12.179Z,24.33
2022-09-20T07:00:41.506Z,24.36
2022-09-20T07:03:14.018Z,24.38
2022-09-20T07:05:44.130Z,24.42
2022-09-20T07:08:14.995Z,24.46
2022-09-20T07:10:45.256Z,24.47
2022-09-20T07:13:15.194Z,24.52
2022-09-20T07:15:45.597Z,24.55
2022-09-20T07:18:15.660Z,24.58
2022-09-20T07:20:48.597Z,24.60
2022-09-20T07:23:19.839Z,24.63
2022-09-20T07:25:50.205Z,24.66
2022-09-20T07:28:23.594Z,24.72
2022-09-20T07:30:54.110Z,24.75
2022-09-20T07:33:26.407Z,24.79
2022-09-20T07:35:57.578Z,24.80
2022-09-20T07:38:27.776Z,24.81
2022-09-20T07:41:03.501Z,24.86
2022-09-20T07:43:34.280Z,24.88
2022-09-20T07:46:05.251Z,24.91
2022-09-20T07:48:38.298Z,24.97
2022-09-20T07:51:12.280Z,25.02
2022-09-20T07:53:43.697Z,25.04
2022-09-20T07:56:16.203Z,25.09
2022-09-20T07:58:50.012Z,25.10
2022-09-20T08:01:23.985Z,25.13
2022-09-20T08:03:54.279Z,25.13
2022-09-20T08:06:24.633Z,25.15
2022-09-20T08:08:55.881Z,25.14
2022-09-20T08:11:29.937Z,25.14
2022-09-20T08:14:09.437Z,25.14
2022-09-20T08:16:43.111Z,25.15
2022-09-20T08:19:22.639Z,25.13
2022-09-20T08:21:57.155Z,25.10
2022-09-20T08:24:30.843Z,25.10
2022-09-20T08:27:01.261Z,25.09
2022-09-20T08:29:34.539Z,25.09
2022-09-20T08:32:05.102Z,25.11
2022-09-20T08:34:36.354Z,25.08
2022-09-20T08:37:07.051Z,25.03
2022-09-20T08:42:42.035Z,24.99
2022-09-20T08:45:22.705Z,24.94
2022-09-20T08:48:08.851Z,24.91
2022-09-20T08:50:39.909Z,24.85
2022-09-20T08:53:21.419Z,24.83
2022-09-20T08:55:52.092Z,24.76
2022-09-20T08:58:23.274Z,24.70
2022-09-20T09:00:53.827Z,24.64
2022-09-20T09:03:24.901Z,24.60
2022-09-20T09:06:02.697Z,24.54
2022-09-20T09:08:41.022Z,24.49
2022-09-20T09:11:16.829Z,24.45
2022-09-20T09:14:33.588Z,24.38
2022-09-20T09:17:03.645Z,24.34
2022-09-20T09:19:45.531Z,24.31
2022-09-20T09:22:43.610Z,24.26
2022-09-20T09:25:18.173Z,24.22
2022-09-20T09:28:29.031Z,24.15
2022-09-20T09:31:17.184Z,24.11
2022-09-20T09:33:48.272Z,24.06
2022-09-20T09:36:27.648Z,24.03
2022-09-20T09:39:32.271Z,23.97
2022-09-20T09:42:20.869Z,23.91
2022-09-20T09:44:51.708Z,23.83
2022-09-20T09:47:40.087Z,23.78
2022-09-20T09:50:29.100Z,23.71
2022-09-20T09:53:21.978Z,23.63
2022-09-20T09:56:13.916Z,23.57
2022-09-20T09:59:15.532Z,23.49
2022-09-20T10:02:21.225Z,23.39
2022-09-20T10:05:08.080Z,23.30
2022-09-20T10:07:46.666Z,23.22
2022-09-20T10:10:53.598Z,23.14
2022-09-20T10:13:35.012Z,23.06
2022-09-20T10:16:33.975Z,23.00
2022-09-20T10:19:45.190Z,22.93
2022-09-20T10:22:30.552Z,22.84
2022-09-20T10:25:18.909Z,22.78
2022-09-20T10:28:07.012Z,22.68
2022-09-20T10:30:49.424Z,22.61
2022-09-20T10:33:51.004Z,22.54
2022-09-20T10:36:48.659Z,22.50
2022-09-20T10:39:41.156Z,22.41
2022-09-20T10:42:50.427Z,22.36
2022-09-20T10:46:03.356Z,22.27
2022-09-20T10:48:42.585Z,22.21
2022-09-20T10:52:09.817Z,22.11
2022-09-20T10:55:06.549Z,22.03
2022-09-20T10:57:58.851Z,21.93
2022-09-20T11:00:50.303Z,21.87
2022-09-20T11:03:47.230Z,21.78
2022-09-20T11:06:53.500Z,21.68
2022-09-20T11:09:29.132Z,21.63
2022-09-20T11:12:19.761Z,21.58
2022-09-20T11:15:16.783Z,21.53
2022-09-20T11:18:24.677Z,21.46
2022-09-20T11:21:19.078Z,21.41
2022-09-20T11:24:25.463Z,21.33
2022-09-20T11:27:06.467Z,21.26
2022-09-20T11:29:43.609Z,21.18
2022-09-20T11:32:20.958Z,21.17
2022-09-20T11:34:55.115Z,21.13
2022-09-20T11:37:31.802Z,21.07
2022-09-20T11:40:37.265Z,20.95
2022-09-20T11:43:12.818Z,20.84
2022-09-20T11:45:45.348Z,20.74
2022-09-20T11:48:30.890Z,20.72
2022-09-20T11:51:07.561Z,20.72
2022-09-20T11:53:58.711Z,20.68
2022-09-20T11:56:35.173Z,20.63
2022-09-20T11:59:09.519Z,20.60
2022-09-20T12:01:47.653Z,20.58
2022-09-20T12:04:33.715Z,20.53
2022-09-20T12:07:14.445Z,20.51
2022-09-20T12:10:12.065Z,20.50
2022-09-20T12:12:53.412Z,20.43
2022-09-20T12:15:28.773Z,20.41
2022-09-20T12:17:59.087Z,20.37
2022-09-20T12:20:43.687Z,20.31
2022-09-20T12:23:41.238Z,20.22
2022-09-20T12:26:14.929Z,20.13
2022-09-20T12:28:52.775Z,20.05
2022-09-20T12:31:34.762Z,19.99
2022-09-20T12:34:17.486Z,19.96
2022-09-20T12:36:54.744Z,19.94
2022-09-20T12:39:32.576Z,19.90
2022-09-20T12:42:03.682Z,19.89
2022-09-20T12:44:48.805Z,19.88
2022-09-20T12:47:26.400Z,19.86
2022-09-20T12:50:20.444Z,19.82
2022-09-20T12:52:59.361Z,19.77
2022-09-20T12:55:35.007Z,19.72
2022-09-20T12:58:17.033Z,19.68
2022-09-20T13:00:48.633Z,19.65
2022-09-20T13:03:30.381Z,19.61
2022-09-20T13:06:14.394Z,19.60
2022-09-20T13:09:02.891Z,19.55
2022-09-20T13:11:43.521Z,19.48
2022-09-20T13:14:16.273Z,19.39
2022-09-20T13:16:55.682Z,19.31
2022-09-20T13:19:30.696Z,19.24
2022-09-20T13:22:11.223Z,19.18
2022-09-20T13:24:47.326Z,19.09
2022-09-20T13:27:37.936Z,19.04
2022-09-20T13:30:24.767Z,19.00
2022-09-20T13:32:56.523Z,18.93
2022-09-20T13:35:33.053Z,18.88
2022-09-20T13:38:08.915Z,18.85
2022-09-20T13:40:41.878Z,18.79
2022-09-20T13:43:39.115Z,18.74
2022-09-20T13:46:25.966Z,18.70
2022-09-20T13:49:25.130Z,18.66
2022-09-20T13:51:54.656Z,18.61
2022-09-20T13:54:35.374Z,18.54
2022-09-20T13:57:13.562Z,18.50
2022-09-20T13:59:47.824Z,18.42
2022-09-20T14:02:32.947Z,18.35
2022-09-20T14:05:07.596Z,18.29
2022-09-20T14:07:38.253Z,18.27
2022-09-20T14:10:29.427Z,18.22
2022-09-20T14:13:04.427Z,18.15
2022-09-20T14:15:47.808Z,18.12
2022-09-20T14:18:23.599Z,18.10
2022-09-20T14:20:56.876Z,18.09
2022-09-20T14:23:31.459Z,18.09
2022-09-20T14:26:23.654Z,18.08
2022-09-20T14:28:55.103Z,18.04
2022-09-20T14:31:34.992Z,18.02
2022-09-20T14:34:07.209Z,18.00
2022-09-20T14:36:38.092Z,17.94
2022-09-20T14:39:20.642Z,17.89
2022-09-20T14:41:52.360Z,17.84
2022-09-20T14:44:35.985Z,17.83
2022-09-20T14:47:19.046Z,17.82
2022-09-20T14:49:50.314Z,17.79
2022-09-20T14:52:34.155Z,17.76
2022-09-20T14:55:18.214Z,17.68
2022-09-20T14:57:49.606Z,17.63
2022-09-20T15:00:22.514Z,17.58
2022-09-20T15:02:53.524Z,17.55
2022-09-20T15:05:29.548Z,17.52
2022-09-20T15:08:01.009Z,17.51
2022-09-20T15:10:32.281Z,17.48
2022-09-20T15:13:03.595Z,17.45
2022-09-20T15:15:37.895Z,17.41
2022-09-20T15:18:22.873Z,17.36
2022-09-20T15:20:55.322Z,17.30
2022-09-20T15:23:27.712Z,17.31
2022-09-20T15:26:00.262Z,17.29
2022-09-20T15:28:34.109Z,17.29
2022-09-20T15:31:06.263Z,17.28
2022-09-20T15:33:39.590Z,17.26
2022-09-20T15:36:10.734Z,17.22
2022-09-20T15:38:46.875Z,17.22
2022-09-20T15:41:20.164Z,17.20
2022-09-20T15:43:51.707Z,17.20
2022-09-20T15:46:30.380Z,17.22
2022-09-20T15:49:03.956Z,17.20
2022-09-20T15:51:35.621Z,17.16
2022-09-20T15:54:09.094Z,17.10
2022-09-20T15:56:42.704Z,17.07
2022-09-20T15:59:16.418Z,17.01
2022-09-20T16:01:49.444Z,17.00
2022-09-20T16:04:21.623Z,16.97
2022-09-20T16:06:52.543Z,16.98
2022-09-20T16:09:22.810Z,16.94
2022-09-20T16:11:53.342Z,16.90
2022-09-20T16:14:23.736Z,16.89
2022-09-20T16:16:58.487Z,16.82
2022-09-20T16:19:28.856Z,16.79
2022-09-20T16:22:00.771Z,16.75
2022-09-20T16:24:34.405Z,16.70
2022-09-20T16:27:07.593Z,16.68
2022-09-20T16:29:37.840Z,16.66
2022-09-20T16:32:08.931Z,16.68
2022-09-20T16:34:39.163Z,16.65
2022-09-20T16:37:16.124Z,16.63
2022-09-20T16:39:46.144Z,16.61
2022-09-20T16:42:16.630Z,16.59
2022-09-20T16:44:47.980Z,16.58
2022-09-20T16:47:26.515Z,16.55
2022-09-20T16:49:58.610Z,16.51
2022-09-20T16:52:28.748Z,16.45
2022-09-20T16:54:58.663Z,16.44
2022-09-20T16:57:28.602Z,16.44
2022-09-20T16:59:59.061Z,16.42
2022-09-20T17:02:29.016Z,16.37
2022-09-20T17:04:59.016Z,16.36
2022-09-20T17:07:29.086Z,16.37
2022-09-20T17:10:02.489Z,16.36
2022-09-20T17:12:35.200Z,16.33
2022-09-20T17:15:04.691Z,16.32
2022-09-20T17:17:35.939Z,16.31
2022-09-20T17:20:08.216Z,16.28
2022-09-20T17:22:38.926Z,16.28
2022-09-20T17:25:09.553Z,16.22
2022-09-20T17:27:40.592Z,16.16
2022-09-20T17:30:11.660Z,16.12
2022-09-20T17:32:45.561Z,16.08
2022-09-20T17:35:15.981Z,16.08
2022-09-20T17:37:46.107Z,16.07
2022-09-20T17:40:16.392Z,16.06
2022-09-20T17:42:47.884Z,16.02
2022-09-20T17:45:17.959Z,15.99
2022-09-20T17:47:48.020Z,16.00
2022-09-20T17:50:18.283Z,15.99
2022-09-20T17:52:48.433Z,15.96
2022-09-20T17:55:18.706Z,15.96
2022-09-20T17:57:52.714Z,15.95
2022-09-20T18:00:26.726Z,15.95
2022-09-20T18:02:58.801Z,15.93
2022-09-20T18:05:31.752Z,15.94
2022-09-20T18:08:02.340Z,15.93
2022-09-20T18:10:32.839Z,15.94
2022-09-20T18:13:03.433Z,15.95
2022-09-20T18:15:35.163Z,15.92
2022-09-20T18:18:05.435Z,15.85
2022-09-20T18:20:35.676Z,15.81
2022-09-20T18:23:07.031Z,15.79
2022-09-20T18:25:57.100Z,15.75
2022-09-20T18:28:27.288Z,15.69
2022-09-20T18:31:04.996Z,15.70
2022-09-20T18:33:35.389Z,15.69
2022-09-20T18:36:07.704Z,15.68
2022-09-20T18:38:38.040Z,15.69
2022-09-20T18:41:08.299Z,15.70
2022-09-20T18:43:38.384Z,15.69
2022-09-20T18:46:08.753Z,15.67
2022-09-20T18:48:40.771Z,15.66
2022-09-20T18:51:10.912Z,15.66
2022-09-20T18:53:41.314Z,15.64
2022-09-20T18:56:30.534Z,15.59
2022-09-20T18:59:22.468Z,15.55
2022-09-20T19:01:56.383Z,15.48
2022-09-20T19:04:37.202Z,15.48
2022-09-20T19:07:29.744Z,15.49
2022-09-20T19:10:09.760Z,15.43
2022-09-20T19:12:42.546Z,15.42
2022-09-20T19:15:38.365Z,15.38
2022-09-20T19:18:30.416Z,15.34
2022-09-20T19:21:24.040Z,15.33
2022-09-20T19:24:15.881Z,15.31
2022-09-20T19:26:47.428Z,15.30
2022-09-20T19:29:24.577Z,15.28
2022-09-20T19:31:57.757Z,15.27
2022-09-20T19:34:31.191Z,15.25
2022-09-20T19:37:35.277Z,15.24
2022-09-20T19:40:19.509Z,15.22
2022-09-20T19:42:55.990Z,15.18
2022-09-20T19:45:33.537Z,15.17
2022-09-20T19:48:38.943Z,15.12
2022-09-20T19:51:13.931Z,15.07
2022-09-20T19:53:44.238Z,15.04
2022-09-20T19:56:23.219Z,15.01
2022-09-20T19:58:57.549Z,14.94
2022-09-20T20:01:28.372Z,14.88
2022-09-20T20:03:58.659Z,14.85
2022-09-20T20:06:53.109Z,14.83
2022-09-20T20:09:41.290Z,14.82
2022-09-20T20:12:17.578Z,14.83
2022-09-20T20:15:13.875Z,14.82
2022-09-20T20:18:00.909Z,14.78
2022-09-20T20:20:42.866Z,14.78
2022-09-20T20:23:33.883Z,14.77
2022-09-20T20:26:04.321Z,14.77
2022-09-20T20:28:34.479Z,14.75
2022-09-20T20:31:06.362Z,14.71
2022-09-20T20:33:36.978Z,14.68
2022-09-20T20:36:10.462Z,14.68
2022-09-20T20:38:47.675Z,14.68
2022-09-20T20:41:20.664Z,14.68
2022-09-20T20:43:58.366Z,14.67
2022-09-20T20:46:28.997Z,14.63
2022-09-20T20:48:59.854Z,14.61
2022-09-20T20:51:30.491Z,14.57
2022-09-20T20:54:01.377Z,14.53
2022-09-20T20:56:33.014Z,14.51
2022-09-20T20:59:09.121Z,14.48
2022-09-20T21:01:47.049Z,14.45
2022-09-20T21:04:18.227Z,14.44
2022-09-20T21:06:48.888Z,14.44
2022-09-20T21:09:19.087Z,14.38
2022-09-20T21:11:49.714Z,14.35
2022-09-20T21:14:19.760Z,14.34
2022-09-20T21:16:50.222Z,14.34
2022-09-20T21:19:20.668Z,14.30
2022-09-20T21:21:51.194Z,14.23
2022-09-20T21:24:21.639Z,14.17
2022-09-20T21:26:52.355Z,14.15
2022-09-20T21:29:22.730Z,14.14
2022-09-20T21:31:53.072Z,14.09
2022-09-20T21:34:23.321Z,14.05
2022-09-20T21:36:53.494Z,13.99
2022-09-20T21:39:23.595Z,13.98
2022-09-20T21:41:53.712Z,13.97
2022-09-20T21:44:23.947Z,13.95
2022-09-20T21:46:54.283Z,13.94
2022-09-20T21:49:23.765Z,13.92
2022-09-20T21:51:54.580Z,13.89
2022-09-20T21:54:25.593Z,13.88
2022-09-20T21:56:57.113Z,13.87
2022-09-20T21:59:29.101Z,13.86
2022-09-20T22:02:03.344Z,13.85
2022-09-20T22:04:33.867Z,13.84
2022-09-20T22:07:05.890Z,13.80
2022-09-20T22:09:36.351Z,13.78
2022-09-20T22:12:07.034Z,13.79
2022-09-20T22:14:40.794Z,13.78
2022-09-20T22:17:11.680Z,13.80
2022-09-20T22:19:42.196Z,13.79
2022-09-20T22:22:12.874Z,13.80
2022-09-20T22:24:43.043Z,13.78
2022-09-20T22:27:15.528Z,13.73
2022-09-20T22:29:45.814Z,13.66
2022-09-20T22:32:16.479Z,13.66
2022-09-20T22:34:47.071Z,13.67
2022-09-20T22:37:18.795Z,13.69
2022-09-20T22:39:49.065Z,13.72
2022-09-20T22:42:19.340Z,13.74
2022-09-20T22:44:49.523Z,13.77
2022-09-20T22:47:22.274Z,13.80
2022-09-20T22:49:52.458Z,13.85
2022-09-20T22:52:22.611Z,13.87
2022-09-20T22:54:52.802Z,13.94
2022-09-20T22:57:22.947Z,14.02
2022-09-20T22:59:54.879Z,14.08
2022-09-20T23:02:25.222Z,14.15
2022-09-20T23:04:55.931Z,14.19
2022-09-20T23:07:26.240Z,14.24
2022-09-20T23:09:56.342Z,14.28
2022-09-20T23:12:26.627Z,14.30
2022-09-20T23:14:56.632Z,14.34
2022-09-20T23:17:27.600Z,14.45
2022-09-20T23:19:58.185Z,14.53
2022-09-20T23:22:28.740Z,14.64
2022-09-20T23:24:58.795Z,14.72
2022-09-20T23:27:30.805Z,14.81
2022-09-20T23:30:01.492Z,14.91
2022-09-20T23:32:32.283Z,15.01
2022-09-20T23:35:02.992Z,15.09
2022-09-20T23:37:33.474Z,15.21
2022-09-20T23:40:03.110Z,15.33
2022-09-20T23:42:33.545Z,15.41
2022-09-20T23:45:03.596Z,15.48
2022-09-20T23:47:33.767Z,15.58
2022-09-20T23:50:03.817Z,15.68
2022-09-20T23:52:34.318Z,15.78
2022-09-20T23:55:04.560Z,15.89
2022-09-20T23:57:34.677Z,15.99
